Time;durP1;ratioP1;P1;durP2;ratioP2;P2;SDS_P1;SDS_P2;PMS_P1;PMS_P2;Temp;Humidity;BMP_temperature;BMP_pressure;BME280_temperature;BME280_humidity;BME280_pressure;Samples;Min_cycle;Max_cycle;Signal;HPM_P1;HPM_P2
2022/06/09 00:01:59;;;;;;;35.50;6.10;;;;;;;;;;5012886;28;98763;-71
2022/06/09 00:04:28;;;;;;;25.92;6.35;;;;;;;;;;5009869;28;98808;-71
2022/06/09 00:07:17;;;;;;;35.53;6.40;;;;;;;;;;5009950;28;98782;-71
2022/06/09 00:10:13;;;;;;;37.70;6.50;;;;;;;;;;5003452;28;100200;-71
2022/06/09 00:12:39;;;;;;;22.35;6.20;;;;;;;;;;4999257;28;100847;-71
2022/06/09 00:15:07;;;;;;;37.92;7.57;;;;;;;;;;5009192;28;98662;-71
2022/06/09 00:17:33;;;;;;;26.25;6.03;;;;;;;;;;5009875;28;99947;-71
2022/06/09 00:20:00;;;;;;;35.47;6.13;;;;;;;;;;5009576;28;100179;-71
2022/06/09 00:22:26;;;;;;;33.65;6.72;;;;;;;;;;5012390;28;98556;-71
2022/06/09 00:24:52;;;;;;;34.50;7.13;;;;;;;;;;5002001;28;100127;-71
2022/06/09 00:27:19;;;;;;;33.85;6.13;;;;;;;;;;4988213;28;98891;-71
2022/06/09 00:29:45;;;;;;;31.27;6.93;;;;;;;;;;4987869;28;100814;-71
2022/06/09 00:32:12;;;;;;;28.75;6.50;;;;;;;;;;4989366;28;100480;-71
2022/06/09 00:34:38;;;;;;;23.92;7.18;;;;;;;;;;5008954;28;98550;-71
2022/06/09 00:37:04;;;;;;;37.08;5.88;;;;;;;;;;5008860;28;99804;-71
2022/06/09 00:39:31;;;;;;;37.88;7.22;;;;;;;;;;5008713;28;99328;-71
2022/06/09 00:41:57;;;;;;;30.80;6.80;;;;;;;;;;5009403;28;98539;-71
2022/06/09 00:44:27;;;;;;;27.70;6.10;;;;;;;;;;5011563;28;100452;-71
2022/06/09 00:47:05;;;;;;;33.45;7.28;;;;;;;;;;5009215;28;98563;-72
2022/06/09 00:49:34;;;;;;;37.63;7.68;;;;;;;;;;5010129;28;100182;-71
2022/06/09 00:52:02;;;;;;;33.25;6.85;;;;;;;;;;5008642;28;99600;-71
2022/06/09 00:54:37;;;;;;;39.53;8.50;;;;;;;;;;5017157;28;97897;-71
2022/06/09 00:57:09;;;;;;;35.30;8.05;;;;;;;;;;5028190;27;98829;-71
2022/06/09 00:59:37;;;;;;;41.80;7.85;;;;;;;;;;5028692;28;100215;-71
2022/06/09 01:02:06;;;;;;;32.70;7.20;;;;;;;;;;5028946;27;99457;-71
2022/06/09 01:04:33;;;;;;;30.42;8.18;;;;;;;;;;5027852;27;100087;-71
2022/06/09 01:07:05;;;;;;;50.42;8.48;;;;;;;;;;5026960;27;99939;-71
2022/06/09 01:09:31;;;;;;;30.77;7.18;;;;;;;;;;5008700;28;99185;-71
2022/06/09 01:11:58;;;;;;;24.75;7.13;;;;;;;;;;5008121;28;100721;-71
2022/06/09 01:14:29;;;;;;;39.35;7.05;;;;;;;;;;5009287;28;98990;-71
2022/06/09 01:17:05;;;;;;;41.28;6.38;;;;;;;;;;5009124;28;99848;-71
2022/06/09 01:19:43;;;;;;;25.55;6.65;;;;;;;;;;5008382;28;98659;-71
2022/06/09 01:22:19;;;;;;;37.13;7.60;;;;;;;;;;5009032;28;98559;-71
2022/06/09 01:25:07;;;;;;;30.88;7.03;;;;;;;;;;5008469;28;100034;-71
2022/06/09 01:27:33;;;;;;;29.23;7.18;;;;;;;;;;5007899;28;100351;-71
2022/06/09 01:30:14;;;;;;;32.53;7.18;;;;;;;;;;5012495;28;98691;-71
2022/06/09 01:32:43;;;;;;;36.95;8.15;;;;;;;;;;5007477;28;100312;-71
2022/06/09 01:35:29;;;;;;;36.38;8.52;;;;;;;;;;5008864;28;98529;-71
2022/06/09 01:37:57;;;;;;;30.73;7.55;;;;;;;;;;5008596;28;100316;-71
2022/06/09 01:40:23;;;;;;;23.17;6.97;;;;;;;;;;5007884;28;100216;-71
2022/06/09 01:42:51;;;;;;;34.33;7.43;;;;;;;;;;5008469;28;98639;-71
2022/06/09 01:45:19;;;;;;;24.75;7.78;;;;;;;;;;5009256;28;99882;-71
2022/06/09 01:47:48;;;;;;;26.42;7.68;;;;;;;;;;5006094;28;100260;-72
2022/06/09 01:50:18;;;;;;;21.40;6.90;;;;;;;;;;5008838;28;98519;-71
2022/06/09 01:52:45;;;;;;;37.58;7.32;;;;;;;;;;5010175;28;99928;-72
2022/06/09 01:55:13;;;;;;;29.58;6.82;;;;;;;;;;5004623;28;99211;-71
2022/06/09 01:57:40;;;;;;;32.58;7.43;;;;;;;;;;5012279;28;100000;-72
2022/06/09 02:00:09;;;;;;;18.10;6.28;;;;;;;;;;5011096;28;100175;-71
2022/06/09 02:02:49;;;;;;;24.35;6.22;;;;;;;;;;5010557;28;98542;-72
2022/06/09 02:05:24;;;;;;;20.17;6.53;;;;;;;;;;5011990;28;99952;-71
2022/06/09 02:07:53;;;;;;;26.20;6.50;;;;;;;;;;5010389;28;99697;-71
2022/06/09 02:10:29;;;;;;;23.95;6.38;;;;;;;;;;5012470;28;97913;-72
2022/06/09 02:12:58;;;;;;;21.63;6.20;;;;;;;;;;5011517;28;98582;-72
2022/06/09 02:15:28;;;;;;;29.80;6.47;;;;;;;;;;5014445;28;99344;-72
2022/06/09 02:17:55;;;;;;;22.52;5.80;;;;;;;;;;5011380;28;100177;-72
2022/06/09 02:20:23;;;;;;;18.77;6.55;;;;;;;;;;5011127;28;100254;-72
2022/06/09 02:22:50;;;;;;;28.52;5.70;;;;;;;;;;5010681;28;99068;-71
2022/06/09 02:25:16;;;;;;;22.75;6.75;;;;;;;;;;5008088;28;98923;-71
2022/06/09 02:27:43;;;;;;;24.65;6.07;;;;;;;;;;4992625;28;99191;-72
2022/06/09 02:30:10;;;;;;;20.17;5.70;;;;;;;;;;4991038;28;98526;-71
2022/06/09 02:32:56;;;;;;;26.98;5.00;;;;;;;;;;5005578;28;99922;-71
2022/06/09 02:35:22;;;;;;;21.50;5.30;;;;;;;;;;5014109;28;99931;-71
2022/06/09 02:37:49;;;;;;;15.18;5.40;;;;;;;;;;5011144;28;99212;-71
2022/06/09 02:40:15;;;;;;;26.48;5.63;;;;;;;;;;5011223;28;100254;-71
2022/06/09 02:42:42;;;;;;;16.20;4.75;;;;;;;;;;5009500;28;99479;-71
2022/06/09 02:45:08;;;;;;;16.60;4.80;;;;;;;;;;5011472;28;100754;-71
2022/06/09 02:47:35;;;;;;;28.40;5.47;;;;;;;;;;5010498;28;100199;-71
2022/06/09 02:50:02;;;;;;;15.68;5.38;;;;;;;;;;5011023;28;98555;-71
2022/06/09 02:52:28;;;;;;;15.88;5.13;;;;;;;;;;5010999;28;99947;-71
2022/06/09 02:54:54;;;;;;;17.08;5.40;;;;;;;;;;5010552;28;100204;-71
2022/06/09 02:57:23;;;;;;;17.10;5.93;;;;;;;;;;5013405;28;98482;-71
2022/06/09 02:59:52;;;;;;;17.38;5.30;;;;;;;;;;5011253;28;99364;-72
2022/06/09 03:02:19;;;;;;;16.60;5.43;;;;;;;;;;5010548;28;98565;-72
2022/06/09 03:04:46;;;;;;;19.38;5.32;;;;;;;;;;5009984;28;100310;-72
2022/06/09 03:07:13;;;;;;;22.40;4.95;;;;;;;;;;5024857;28;100563;-72
2022/06/09 03:09:40;;;;;;;16.02;4.22;;;;;;;;;;5030707;28;98564;-71
2022/06/09 03:12:07;;;;;;;20.58;4.75;;;;;;;;;;5030038;28;99131;-71
2022/06/09 03:14:33;;;;;;;16.30;4.35;;;;;;;;;;5029970;28;99635;-72
2022/06/09 03:17:00;;;;;;;17.15;4.43;;;;;;;;;;5030986;28;98652;-71
2022/06/09 03:19:27;;;;;;;10.95;4.40;;;;;;;;;;5033006;28;99932;-71
2022/06/09 03:21:53;;;;;;;18.73;5.10;;;;;;;;;;5030596;28;99747;-72
2022/06/09 03:24:20;;;;;;;16.50;4.32;;;;;;;;;;5029302;28;99050;-72
2022/06/09 03:26:46;;;;;;;16.90;4.75;;;;;;;;;;5028613;28;100281;-72
2022/06/09 03:29:13;;;;;;;18.30;4.80;;;;;;;;;;4994042;28;98778;-72
2022/06/09 03:31:39;;;;;;;14.85;4.07;;;;;;;;;;4989159;28;99248;-71
2022/06/09 03:34:05;;;;;;;21.80;3.75;;;;;;;;;;4989713;28;98654;-71
2022/06/09 03:36:32;;;;;;;14.23;4.10;;;;;;;;;;4990639;28;99638;-71
2022/06/09 03:38:59;;;;;;;12.80;3.90;;;;;;;;;;4990078;28;99120;-72
2022/06/09 03:41:25;;;;;;;13.75;4.20;;;;;;;;;;5010969;28;100394;-71
2022/06/09 03:43:51;;;;;;;14.88;4.43;;;;;;;;;;5009708;28;99166;-72
2022/06/09 03:46:18;;;;;;;18.48;4.43;;;;;;;;;;5009188;28;100337;-71
2022/06/09 03:48:44;;;;;;;12.88;3.25;;;;;;;;;;5010566;28;97766;-71
2022/06/09 03:51:11;;;;;;;12.75;3.75;;;;;;;;;;5010311;28;98758;-71
2022/06/09 03:53:39;;;;;;;15.25;3.72;;;;;;;;;;5008641;28;100322;-71
2022/06/09 03:56:20;;;;;;;8.48;3.13;;;;;;;;;;5009585;28;99256;-72
2022/06/09 03:58:46;;;;;;;15.00;3.28;;;;;;;;;;5009986;28;100773;-71
2022/06/09 04:01:17;;;;;;;12.80;3.00;;;;;;;;;;5009225;28;99226;-71
2022/06/09 04:03:45;;;;;;;13.45;3.00;;;;;;;;;;5023177;27;98679;-71
2022/06/09 04:06:15;;;;;;;11.00;2.72;;;;;;;;;;5006632;28;99521;-71
2022/06/09 04:08:41;;;;;;;9.15;3.25;;;;;;;;;;4989150;28;98731;-71
2022/06/09 04:11:08;;;;;;;10.88;2.70;;;;;;;;;;5005248;28;99961;-71
2022/06/09 04:13:35;;;;;;;5.75;2.47;;;;;;;;;;5008175;28;99819;-71
2022/06/09 04:16:02;;;;;;;13.07;2.80;;;;;;;;;;5009960;28;98537;-71
2022/06/09 04:18:28;;;;;;;8.38;2.50;;;;;;;;;;5009565;28;100109;-71
2022/06/09 04:20:54;;;;;;;9.40;2.55;;;;;;;;;;5007575;28;100722;-71
2022/06/09 04:23:21;;;;;;;7.85;2.40;;;;;;;;;;5009592;28;98628;-71
2022/06/09 04:25:47;;;;;;;13.50;3.58;;;;;;;;;;5011336;28;99181;-71
2022/06/09 04:28:13;;;;;;;10.13;2.33;;;;;;;;;;4988279;28;98649;-72
2022/06/09 04:30:40;;;;;;;11.43;2.72;;;;;;;;;;4989457;28;99948;-72
2022/06/09 04:33:06;;;;;;;10.05;2.90;;;;;;;;;;4989518;28;100787;-71
2022/06/09 04:35:33;;;;;;;9.25;2.78;;;;;;;;;;4988684;28;98579;-71
2022/06/09 04:38:00;;;;;;;11.32;3.75;;;;;;;;;;4996852;28;99963;-72
2022/06/09 04:40:44;;;;;;;15.45;3.17;;;;;;;;;;4989234;28;99782;-72
2022/06/09 04:43:11;;;;;;;13.38;2.65;;;;;;;;;;4989132;28;98557;-72
2022/06/09 04:45:39;;;;;;;11.00;2.67;;;;;;;;;;5007798;28;100013;-72
2022/06/09 04:48:05;;;;;;;11.90;2.50;;;;;;;;;;4991522;28;98700;-72
2022/06/09 04:50:32;;;;;;;6.90;2.20;;;;;;;;;;4988738;28;100369;-72
2022/06/09 04:52:58;;;;;;;15.02;2.90;;;;;;;;;;4989258;28;100102;-72
2022/06/09 04:55:25;;;;;;;8.52;2.58;;;;;;;;;;4997420;27;98744;-72
2022/06/09 04:57:51;;;;;;;8.63;2.58;;;;;;;;;;4988291;28;99866;-71
2022/06/09 05:00:17;;;;;;;6.82;2.92;;;;;;;;;;4989080;28;99491;-71
2022/06/09 05:02:44;;;;;;;6.43;2.10;;;;;;;;;;4989146;28;97789;-71
2022/06/09 05:05:21;;;;;;;6.68;2.53;;;;;;;;;;4989213;28;98911;-72
2022/06/09 05:07:47;;;;;;;8.48;2.67;;;;;;;;;;4992017;28;100197;-72
2022/06/09 05:10:14;;;;;;;9.55;3.08;;;;;;;;;;4996989;28;99323;-72
2022/06/09 05:12:40;;;;;;;6.20;2.30;;;;;;;;;;5008301;28;99828;-72
2022/06/09 05:15:07;;;;;;;10.60;2.53;;;;;;;;;;5009593;28;99511;-72
2022/06/09 05:17:33;;;;;;;11.55;3.10;;;;;;;;;;5002215;28;99914;-72
2022/06/09 05:20:00;;;;;;;6.38;2.67;;;;;;;;;;4989056;28;99567;-72
2022/06/09 05:22:26;;;;;;;8.38;2.80;;;;;;;;;;5000206;28;98553;-72
2022/06/09 05:24:52;;;;;;;10.35;3.08;;;;;;;;;;5008207;28;98945;-72
2022/06/09 05:27:20;;;;;;;8.50;2.70;;;;;;;;;;5006519;28;99542;-73
2022/06/09 05:29:47;;;;;;;7.72;2.13;;;;;;;;;;4999442;28;99245;-72
2022/06/09 05:32:13;;;;;;;6.97;1.85;;;;;;;;;;4991329;28;100034;-72
2022/06/09 05:34:39;;;;;;;9.35;2.95;;;;;;;;;;4991968;28;100022;-72
2022/06/09 05:37:06;;;;;;;8.07;2.75;;;;;;;;;;4992064;28;100631;-73
2022/06/09 05:45:03;;;;;;;8.25;2.00;;;;;;;;;;5011153;28;99223;-73
2022/06/09 05:47:30;;;;;;;9.35;2.63;;;;;;;;;;5004233;28;100299;-73
2022/06/09 05:49:56;;;;;;;6.32;2.08;;;;;;;;;;4992322;28;98623;-73
2022/06/09 05:52:24;;;;;;;13.38;1.90;;;;;;;;;;5007566;28;99967;-73
2022/06/09 05:54:51;;;;;;;7.65;1.98;;;;;;;;;;4998845;28;98570;-73
2022/06/09 05:57:18;;;;;;;14.40;2.08;;;;;;;;;;5010368;28;100063;-73
2022/06/09 05:59:47;;;;;;;9.15;2.78;;;;;;;;;;5003592;28;100542;-73
2022/06/09 06:02:15;;;;;;;6.18;2.08;;;;;;;;;;4992332;28;98577;-73
2022/06/09 06:04:42;;;;;;;4.95;1.85;;;;;;;;;;4991503;27;99438;-74
2022/06/09 06:07:09;;;;;;;7.20;1.85;;;;;;;;;;4994824;28;100243;-73
2022/06/09 06:09:35;;;;;;;9.65;2.65;;;;;;;;;;5011582;28;98511;-73
2022/06/09 06:12:03;;;;;;;6.70;1.90;;;;;;;;;;5010461;28;99510;-73
2022/06/09 06:14:34;;;;;;;9.90;2.35;;;;;;;;;;5010943;28;99265;-73
2022/06/09 06:17:01;;;;;;;8.52;2.08;;;;;;;;;;5012084;28;100005;-73
2022/06/09 06:19:27;;;;;;;6.85;1.80;;;;;;;;;;5011338;28;99903;-73
2022/06/09 06:21:54;;;;;;;8.40;1.83;;;;;;;;;;5010502;28;98552;-73
2022/06/09 06:24:23;;;;;;;9.82;1.95;;;;;;;;;;5004437;28;100565;-73
2022/06/09 06:26:49;;;;;;;8.27;2.40;;;;;;;;;;5008356;28;99748;-73
2022/06/09 06:29:19;;;;;;;7.00;1.85;;;;;;;;;;5002373;28;99323;-73
2022/06/09 06:31:46;;;;;;;4.95;1.73;;;;;;;;;;5003747;28;100279;-77
2022/06/09 06:34:12;;;;;;;9.30;2.20;;;;;;;;;;4999620;28;100319;-77
2022/06/09 06:36:39;;;;;;;4.63;2.42;;;;;;;;;;5005391;28;99420;-74
2022/06/09 06:39:06;;;;;;;10.05;2.00;;;;;;;;;;4986687;28;100859;-74
2022/06/09 06:41:32;;;;;;;7.78;2.15;;;;;;;;;;4984279;28;100617;-74
2022/06/09 06:43:58;;;;;;;3.10;1.38;;;;;;;;;;4994743;28;99267;-74
2022/06/09 06:46:26;;;;;;;5.13;1.63;;;;;;;;;;4995252;28;100203;-74
2022/06/09 06:48:55;;;;;;;5.45;2.00;;;;;;;;;;4994420;28;101493;-75
2022/06/09 06:51:22;;;;;;;5.45;2.08;;;;;;;;;;4991157;28;100790;-74
2022/06/09 06:53:49;;;;;;;5.50;1.52;;;;;;;;;;4990447;28;100406;-74
2022/06/09 06:56:15;;;;;;;6.25;2.08;;;;;;;;;;4993666;28;99821;-74
2022/06/09 06:58:42;;;;;;;8.73;2.38;;;;;;;;;;4990558;28;100329;-73
2022/06/09 07:01:09;;;;;;;6.88;2.28;;;;;;;;;;4996630;28;100587;-73
2022/06/09 07:03:35;;;;;;;10.23;1.90;;;;;;;;;;5000508;28;99865;-73
2022/06/09 07:06:03;;;;;;;12.80;2.35;;;;;;;;;;5000528;28;99066;-73
2022/06/09 07:08:30;;;;;;;8.88;2.63;;;;;;;;;;5007822;28;98632;-73
2022/06/09 07:10:57;;;;;;;6.88;1.90;;;;;;;;;;5004561;28;99272;-73
2022/06/09 07:13:23;;;;;;;2.95;1.67;;;;;;;;;;4993172;28;100953;-73
2022/06/09 07:15:50;;;;;;;6.13;2.20;;;;;;;;;;5000569;28;99199;-73
2022/06/09 07:18:19;;;;;;;10.13;2.08;;;;;;;;;;5012836;28;99846;-74
2022/06/09 07:20:46;;;;;;;5.85;1.77;;;;;;;;;;4997384;28;99094;-74
2022/06/09 07:23:12;;;;;;;10.02;2.65;;;;;;;;;;5010454;28;99148;-73
2022/06/09 07:25:39;;;;;;;9.82;1.85;;;;;;;;;;5009317;28;100181;-73
2022/06/09 07:28:06;;;;;;;7.75;2.60;;;;;;;;;;5010457;28;98552;-73
2022/06/09 07:30:32;;;;;;;5.95;1.58;;;;;;;;;;5010233;28;99841;-73
2022/06/09 07:33:00;;;;;;;6.65;1.73;;;;;;;;;;4991832;28;99730;-73
2022/06/09 07:35:28;;;;;;;7.70;2.10;;;;;;;;;;4996937;28;98658;-74
2022/06/09 07:37:55;;;;;;;6.28;2.20;;;;;;;;;;4994973;28;100443;-73
2022/06/09 07:40:22;;;;;;;8.73;2.15;;;;;;;;;;4995137;28;100253;-73
2022/06/09 07:42:49;;;;;;;4.53;1.55;;;;;;;;;;5003355;28;100084;-73
2022/06/09 07:45:16;;;;;;;15.77;2.47;;;;;;;;;;4996140;28;100295;-73
2022/06/09 07:47:43;;;;;;;5.20;1.65;;;;;;;;;;4989666;28;99015;-72
2022/06/09 07:50:10;;;;;;;8.23;2.22;;;;;;;;;;4993772;28;99136;-74
2022/06/09 07:52:43;;;;;;;7.68;2.28;;;;;;;;;;4998642;27;99619;-74
2022/06/09 07:55:10;;;;;;;6.28;2.03;;;;;;;;;;4995570;28;98590;-74
2022/06/09 07:57:37;;;;;;;4.88;2.05;;;;;;;;;;4991482;28;100360;-74
2022/06/09 08:00:05;;;;;;;7.13;1.65;;;;;;;;;;5008596;28;99246;-73
2022/06/09 08:02:37;;;;;;;7.15;2.35;;;;;;;;;;5010826;28;99766;-73
2022/06/09 08:05:04;;;;;;;5.03;2.05;;;;;;;;;;4995968;28;100033;-72
2022/06/09 08:07:30;;;;;;;7.00;1.90;;;;;;;;;;4992936;28;98564;-72
2022/06/09 08:09:57;;;;;;;6.07;1.92;;;;;;;;;;5010384;28;100682;-72
2022/06/09 08:12:23;;;;;;;5.85;2.15;;;;;;;;;;5017767;28;100177;-74
2022/06/09 08:14:49;;;;;;;5.07;1.75;;;;;;;;;;5029175;28;99069;-74
2022/06/09 08:17:16;;;;;;;5.40;1.60;;;;;;;;;;4997350;28;100227;-73
2022/06/09 08:19:44;;;;;;;10.60;1.77;;;;;;;;;;4989290;28;98949;-73
2022/06/09 08:22:10;;;;;;;8.73;2.00;;;;;;;;;;4990230;28;98612;-73
2022/06/09 08:24:37;;;;;;;2.95;1.75;;;;;;;;;;5000397;28;100129;-72
2022/06/09 08:27:03;;;;;;;7.05;1.90;;;;;;;;;;5015736;28;99703;-72
2022/06/09 08:29:30;;;;;;;4.80;1.58;;;;;;;;;;5007991;27;100131;-73
2022/06/09 08:31:56;;;;;;;9.80;2.63;;;;;;;;;;4998133;28;99274;-73
2022/06/09 08:34:23;;;;;;;6.35;2.13;;;;;;;;;;4989681;28;98564;-72
2022/06/09 08:36:50;;;;;;;3.80;1.40;;;;;;;;;;5008707;28;100199;-72
2022/06/09 08:39:16;;;;;;;7.80;1.63;;;;;;;;;;5009107;28;100246;-72
2022/06/09 08:41:48;;;;;;;4.10;1.40;;;;;;;;;;5007877;28;98515;-73
2022/06/09 08:44:14;;;;;;;5.30;1.90;;;;;;;;;;5013034;28;99149;-73
2022/06/09 08:46:43;;;;;;;6.70;1.77;;;;;;;;;;4993053;28;98644;-73
2022/06/09 08:49:24;;;;;;;6.70;1.75;;;;;;;;;;4988788;28;98970;-72
2022/06/09 08:51:51;;;;;;;7.13;1.80;;;;;;;;;;4988555;28;101001;-73
2022/06/09 08:54:22;;;;;;;5.10;1.98;;;;;;;;;;4989565;28;98682;-73
2022/06/09 08:56:50;;;;;;;5.72;1.75;;;;;;;;;;4989036;28;99308;-73
2022/06/09 08:59:19;;;;;;;3.72;1.70;;;;;;;;;;4989367;28;100157;-73
2022/06/09 09:01:50;;;;;;;7.35;2.15;;;;;;;;;;4995898;28;98525;-73
2022/06/09 09:04:21;;;;;;;6.28;1.75;;;;;;;;;;4995871;28;99596;-73
2022/06/09 09:06:50;;;;;;;4.15;1.85;;;;;;;;;;4998632;28;100458;-73
2022/06/09 09:09:22;;;;;;;6.75;1.52;;;;;;;;;;4996198;28;99950;-73
2022/06/09 09:12:00;;;;;;;5.45;1.67;;;;;;;;;;4995310;28;99399;-73
2022/06/09 09:14:34;;;;;;;3.28;1.67;;;;;;;;;;5015771;28;98916;-73
2022/06/09 09:17:00;;;;;;;8.75;2.42;;;;;;;;;;5009858;28;99925;-73
2022/06/09 09:19:34;;;;;;;9.90;1.70;;;;;;;;;;5015382;28;100574;-73
2022/06/09 09:22:03;;;;;;;5.32;1.35;;;;;;;;;;5015125;28;98655;-73
2022/06/09 09:24:38;;;;;;;7.22;1.70;;;;;;;;;;5012792;28;98979;-74
2022/06/09 09:27:29;;;;;;;4.03;1.67;;;;;;;;;;5013313;28;99866;-73
2022/06/09 09:30:11;;;;;;;5.47;1.70;;;;;;;;;;5019025;28;98915;-74
2022/06/09 09:32:42;;;;;;;6.60;2.25;;;;;;;;;;5015282;28;99364;-74
2022/06/09 09:35:11;;;;;;;3.38;1.75;;;;;;;;;;5015823;28;97805;-74
2022/06/09 09:37:40;;;;;;;5.63;1.95;;;;;;;;;;5014429;28;98582;-74
2022/06/09 09:40:18;;;;;;;11.63;2.92;;;;;;;;;;5014949;28;100106;-74
2022/06/09 09:42:45;;;;;;;9.13;2.33;;;;;;;;;;5014437;28;99905;-74
2022/06/09 09:45:12;;;;;;;5.22;1.70;;;;;;;;;;5014942;28;99832;-74
2022/06/09 09:47:42;;;;;;;5.40;2.10;;;;;;;;;;5014622;28;99683;-74
2022/06/09 09:50:20;;;;;;;9.02;2.15;;;;;;;;;;5015515;28;98665;-74
2022/06/09 09:52:53;;;;;;;3.92;1.98;;;;;;;;;;5017452;28;99745;-73
2022/06/09 09:55:27;;;;;;;8.02;2.25;;;;;;;;;;5015709;28;98533;-73
2022/06/09 09:58:09;;;;;;;7.78;1.88;;;;;;;;;;5015313;28;99264;-73
2022/06/09 10:00:36;;;;;;;5.85;2.22;;;;;;;;;;5015270;28;98429;-73
2022/06/09 10:09:04;;;;;;;9.50;2.17;;;;;;;;;;4994242;28;101273;-77
2022/06/09 10:11:55;;;;;;;7.20;1.80;;;;;;;;;;5007055;27;98942;-73
2022/06/09 10:14:31;;;;;;;8.05;2.30;;;;;;;;;;4992947;28;100033;-73
2022/06/09 10:16:58;;;;;;;3.67;1.60;;;;;;;;;;5007884;28;99780;-73
2022/06/09 10:19:48;;;;;;;7.57;2.38;;;;;;;;;;4990685;28;98595;-73
2022/06/09 10:22:19;;;;;;;5.85;2.03;;;;;;;;;;4991655;28;99831;-73
2022/06/09 10:25:20;;;;;;;4.13;2.05;;;;;;;;;;4994691;28;98551;-73
2022/06/09 10:27:52;;;;;;;4.57;1.92;;;;;;;;;;5008176;28;99987;-74
2022/06/09 10:30:42;;;;;;;6.13;1.77;;;;;;;;;;5005228;28;100249;-75
2022/06/09 10:33:12;;;;;;;5.18;1.48;;;;;;;;;;4991258;28;99031;-74
2022/06/09 10:35:52;;;;;;;4.13;1.87;;;;;;;;;;5010077;28;99259;-74
2022/06/09 10:38:25;;;;;;;3.85;1.50;;;;;;;;;;5010874;28;99699;-74
2022/06/09 10:40:54;;;;;;;4.50;1.50;;;;;;;;;;5013251;28;98922;-74
2022/06/09 10:43:21;;;;;;;5.43;1.67;;;;;;;;;;5011017;28;100489;-74
2022/06/09 10:45:59;;;;;;;4.75;1.95;;;;;;;;;;5010886;28;98604;-73
2022/06/09 10:57:01;;;;;;;5.95;1.73;;;;;;;;;;5010976;28;99862;-74
2022/06/09 10:59:37;;;;;;;9.85;1.90;;;;;;;;;;5010667;28;100358;-73
2022/06/09 11:02:09;;;;;;;4.07;1.65;;;;;;;;;;5013327;28;99573;-74
2022/06/09 11:04:36;;;;;;;5.65;1.88;;;;;;;;;;5010675;28;100212;-74
2022/06/09 11:07:11;;;;;;;5.43;2.30;;;;;;;;;;5011022;28;98614;-74
2022/06/09 11:09:37;;;;;;;6.95;2.03;;;;;;;;;;5009890;28;99959;-73
2022/06/09 11:12:22;;;;;;;5.40;1.60;;;;;;;;;;5005019;28;99734;-73
2022/06/09 11:14:48;;;;;;;4.95;1.38;;;;;;;;;;4998968;28;98514;-73
2022/06/09 11:17:20;;;;;;;9.77;1.55;;;;;;;;;;4990810;28;100088;-73
2022/06/09 11:20:06;;;;;;;5.28;1.73;;;;;;;;;;4991155;28;99867;-73
2022/06/09 11:22:51;;;;;;;6.72;2.22;;;;;;;;;;4990288;28;98534;-72
2022/06/09 11:25:32;;;;;;;5.15;2.03;;;;;;;;;;4993705;28;99959;-73
2022/06/09 11:28:05;;;;;;;4.78;2.22;;;;;;;;;;4990243;28;99306;-73
2022/06/09 11:30:40;;;;;;;7.28;2.25;;;;;;;;;;4989548;28;100023;-73
2022/06/09 11:33:25;;;;;;;6.32;1.98;;;;;;;;;;4990306;28;100392;-73
2022/06/09 11:35:51;;;;;;;3.28;2.10;;;;;;;;;;4990462;28;98528;-73
2022/06/09 11:38:24;;;;;;;4.65;1.65;;;;;;;;;;4989858;28;99182;-73
2022/06/09 11:40:57;;;;;;;10.10;1.88;;;;;;;;;;4989514;28;100460;-73
2022/06/09 11:44:02;;;;;;;7.68;2.30;;;;;;;;;;4990505;28;98505;-73
2022/06/09 11:46:31;;;;;;;6.55;1.95;;;;;;;;;;4952726;28;100217;-72
2022/06/09 11:48:59;;;;;;;9.50;2.40;;;;;;;;;;4971256;28;100307;-72
2022/06/09 11:51:27;;;;;;;7.50;1.90;;;;;;;;;;4988092;28;100070;-72
2022/06/09 11:53:55;;;;;;;7.60;2.10;;;;;;;;;;5009333;28;100565;-72
2022/06/09 11:56:33;;;;;;;5.10;2.00;;;;;;;;;;5010731;28;99002;-72
2022/06/09 11:59:02;;;;;;;8.20;2.05;;;;;;;;;;5009493;28;99903;-72
2022/06/09 12:01:31;;;;;;;6.07;1.73;;;;;;;;;;5009672;28;100239;-72
2022/06/09 12:04:14;;;;;;;7.80;1.95;;;;;;;;;;5009500;28;98566;-72
2022/06/09 12:06:51;;;;;;;6.60;1.63;;;;;;;;;;4989848;28;101556;-72
2022/06/09 12:09:36;;;;;;;6.82;1.73;;;;;;;;;;4989748;28;100288;-71
2022/06/09 12:12:04;;;;;;;6.53;2.08;;;;;;;;;;4993065;28;98118;-71
2022/06/09 12:14:33;;;;;;;6.50;1.75;;;;;;;;;;4989523;28;100780;-71
2022/06/09 12:17:05;;;;;;;3.80;1.58;;;;;;;;;;4990177;28;98628;-71
2022/06/09 12:19:35;;;;;;;7.43;2.20;;;;;;;;;;4988631;28;99367;-71
2022/06/09 12:22:20;;;;;;;7.47;1.90;;;;;;;;;;4989676;28;100494;-71
2022/06/09 12:25:05;;;;;;;8.68;2.13;;;;;;;;;;4989690;28;98533;-71
2022/06/09 12:27:34;;;;;;;6.25;2.00;;;;;;;;;;4989740;28;99153;-71
2022/06/09 12:30:01;;;;;;;4.45;1.63;;;;;;;;;;4992575;28;99523;-71
2022/06/09 12:32:30;;;;;;;5.55;1.90;;;;;;;;;;4989447;28;98582;-71
2022/06/09 12:34:57;;;;;;;7.05;1.90;;;;;;;;;;4990855;28;99984;-71
2022/06/09 12:37:31;;;;;;;4.47;1.60;;;;;;;;;;4990312;28;98617;-71
2022/06/09 12:40:07;;;;;;;10.15;2.17;;;;;;;;;;4989020;28;99166;-71
2022/06/09 12:42:46;;;;;;;4.68;2.15;;;;;;;;;;4988623;28;100242;-71
2022/06/09 12:45:20;;;;;;;8.63;2.17;;;;;;;;;;4989556;28;99258;-72
2022/06/09 12:48:05;;;;;;;3.03;1.25;;;;;;;;;;5001796;28;100743;-72
2022/06/09 12:50:34;;;;;;;4.68;1.95;;;;;;;;;;5009014;28;100290;-72
2022/06/09 12:53:04;;;;;;;10.02;2.63;;;;;;;;;;5009532;28;98599;-72
2022/06/09 12:55:33;;;;;;;7.57;2.15;;;;;;;;;;4990549;28;101191;-72
2022/06/09 12:58:17;;;;;;;5.88;2.63;;;;;;;;;;4992496;28;99305;-72
2022/06/09 13:00:46;;;;;;;4.72;2.17;;;;;;;;;;4999258;28;99143;-72
2022/06/09 13:03:25;;;;;;;5.90;2.13;;;;;;;;;;5008719;28;98420;-71
2022/06/09 13:05:51;;;;;;;8.35;2.28;;;;;;;;;;5009129;28;98558;-72
2022/06/09 13:08:25;;;;;;;8.80;2.20;;;;;;;;;;5008501;28;99855;-72
2022/06/09 13:11:03;;;;;;;8.45;2.50;;;;;;;;;;5007671;28;100205;-72
2022/06/09 13:13:40;;;;;;;6.32;1.83;;;;;;;;;;4994179;28;98916;-72
2022/06/09 13:16:10;;;;;;;11.65;2.60;;;;;;;;;;5004578;28;100202;-72
2022/06/09 13:18:39;;;;;;;9.32;1.85;;;;;;;;;;5011488;28;99494;-72
2022/06/09 13:21:14;;;;;;;6.75;2.05;;;;;;;;;;5009281;28;99985;-72
2022/06/09 13:23:41;;;;;;;6.03;2.47;;;;;;;;;;5007732;28;100283;-72
2022/06/09 13:26:12;;;;;;;5.70;2.45;;;;;;;;;;5008855;28;98626;-71
2022/06/09 13:28:48;;;;;;;8.80;2.13;;;;;;;;;;5000124;28;99346;-72
2022/06/09 13:31:26;;;;;;;8.32;2.50;;;;;;;;;;4989103;28;100199;-71
2022/06/09 13:34:00;;;;;;;8.93;2.17;;;;;;;;;;4996493;28;98741;-71
2022/06/09 13:36:38;;;;;;;11.30;2.35;;;;;;;;;;4987723;28;99784;-71
2022/06/09 13:39:25;;;;;;;8.38;2.30;;;;;;;;;;5008045;28;99398;-72
2022/06/09 13:41:52;;;;;;;9.32;2.33;;;;;;;;;;5001289;28;99032;-72
2022/06/09 13:44:25;;;;;;;6.65;1.90;;;;;;;;;;4987697;28;100195;-71
2022/06/09 13:46:57;;;;;;;9.05;3.03;;;;;;;;;;4996626;28;99640;-73
2022/06/09 13:49:32;;;;;;;14.73;2.22;;;;;;;;;;5012506;28;98808;-71
2022/06/09 13:52:04;;;;;;;10.68;2.75;;;;;;;;;;5010718;28;99693;-71
2022/06/09 13:54:32;;;;;;;4.72;2.03;;;;;;;;;;5012731;28;97803;-72
2022/06/09 13:56:59;;;;;;;5.85;1.92;;;;;;;;;;5012118;28;98536;-72
2022/06/09 13:59:25;;;;;;;10.18;2.30;;;;;;;;;;5001745;28;100257;-72
2022/06/09 14:01:53;;;;;;;11.10;2.33;;;;;;;;;;4990920;28;99480;-71
2022/06/09 14:04:24;;;;;;;11.23;2.13;;;;;;;;;;5004069;28;100522;-72
2022/06/09 14:06:50;;;;;;;4.85;1.98;;;;;;;;;;5005342;28;99015;-70
2022/06/09 14:09:17;;;;;;;6.93;1.75;;;;;;;;;;4993751;28;99037;-70
2022/06/09 14:11:44;;;;;;;4.63;1.77;;;;;;;;;;4990137;28;100160;-71
2022/06/09 14:14:30;;;;;;;7.63;2.25;;;;;;;;;;4992826;28;99118;-71
2022/06/09 14:16:57;;;;;;;7.68;2.25;;;;;;;;;;5001193;28;99857;-70
2022/06/09 14:19:23;;;;;;;6.20;2.30;;;;;;;;;;5002729;28;99493;-70
2022/06/09 14:21:49;;;;;;;3.95;1.98;;;;;;;;;;4993428;28;98588;-70
2022/06/09 14:24:18;;;;;;;6.80;2.08;;;;;;;;;;4996678;28;101094;-71
2022/06/09 14:26:46;;;;;;;5.97;2.03;;;;;;;;;;5005050;28;101049;-70
2022/06/09 14:29:14;;;;;;;9.93;1.90;;;;;;;;;;4991107;28;100033;-70
2022/06/09 14:31:41;;;;;;;5.00;1.95;;;;;;;;;;4994129;28;100345;-70
2022/06/09 14:34:08;;;;;;;4.82;1.92;;;;;;;;;;4993679;28;98852;-71
2022/06/09 14:36:34;;;;;;;5.50;2.42;;;;;;;;;;4999728;28;100655;-71
2022/06/09 14:39:02;;;;;;;7.55;2.13;;;;;;;;;;4998759;28;100844;-70
2022/06/09 14:41:28;;;;;;;8.90;2.38;;;;;;;;;;5006191;28;98727;-70
2022/06/09 14:43:55;;;;;;;7.53;2.00;;;;;;;;;;5001057;28;100123;-71
2022/06/09 14:46:26;;;;;;;5.63;1.63;;;;;;;;;;5006729;28;99283;-70
2022/06/09 14:48:53;;;;;;;13.45;2.55;;;;;;;;;;4999655;28;99043;-70
2022/06/09 14:51:19;;;;;;;6.63;2.67;;;;;;;;;;4990479;28;100402;-71
2022/06/09 14:53:46;;;;;;;6.97;1.90;;;;;;;;;;4989782;28;98522;-71
2022/06/09 14:56:15;;;;;;;7.60;2.10;;;;;;;;;;4991517;28;100356;-71
2022/06/09 14:58:42;;;;;;;7.38;2.05;;;;;;;;;;4991028;28;99726;-70
2022/06/09 15:01:10;;;;;;;7.55;2.15;;;;;;;;;;4989780;28;99100;-71
2022/06/09 15:03:37;;;;;;;6.80;2.03;;;;;;;;;;4990915;28;99919;-71
2022/06/09 15:06:05;;;;;;;11.60;1.90;;;;;;;;;;5000706;28;101093;-71
2022/06/09 15:08:32;;;;;;;4.70;2.13;;;;;;;;;;4991433;27;97830;-71
2022/06/09 15:10:59;;;;;;;7.60;1.30;;;;;;;;;;4998859;28;98769;-71